createdAt,value
2018-05-04T00:00:03.323Z,0
2018-05-04T00:05:02.579Z,0
2018-05-04T00:10:03.220Z,0
2018-05-04T00:15:02.794Z,0
2018-05-04T00:20:03.454Z,0
2018-05-04T00:25:03.055Z,0
2018-05-04T00:30:02.670Z,0
2018-05-04T00:35:03.201Z,0
2018-05-04T00:40:02.811Z,0
2018-05-04T00:45:03.491Z,0
2018-05-04T00:50:03.067Z,0
2018-05-04T00:55:02.658Z,0
2018-05-04T01:00:03.240Z,0
2018-05-04T01:05:02.843Z,0
2018-05-04T01:10:03.415Z,0
2018-05-04T01:15:02.927Z,0
2018-05-04T01:20:02.490Z,0
2018-05-04T01:25:03.051Z,0
2018-05-04T01:30:02.636Z,0
2018-05-04T01:35:03.257Z,0
2018-05-04T01:40:02.764Z,0
2018-05-04T01:45:03.315Z,0
2018-05-04T01:50:02.823Z,0
2018-05-04T01:55:03.331Z,0
2018-05-04T02:00:02.837Z,0
2018-05-04T02:05:03.411Z,0
2018-05-04T02:10:02.969Z,0
2018-05-04T02:15:02.574Z,0
2018-05-04T02:20:03.154Z,0
2018-05-04T02:25:02.737Z,0
2018-05-04T02:30:03.608Z,0
2018-05-04T02:35:03.151Z,0
2018-05-04T02:40:02.753Z,0
2018-05-04T02:45:03.256Z,0
2018-05-04T02:50:02.902Z,0
2018-05-04T02:55:03.366Z,0
2018-05-04T03:00:02.963Z,0
2018-05-04T03:05:02.544Z,0
2018-05-04T03:10:03.176Z,0
2018-05-04T03:15:02.690Z,1
2018-05-04T03:20:03.218Z,2
2018-05-04T03:25:02.751Z,3
2018-05-04T03:30:03.421Z,6
2018-05-04T03:35:03.012Z,12
2018-05-04T03:40:02.610Z,24
2018-05-04T03:45:03.327Z,27
2018-05-04T03:50:02.887Z,52
2018-05-04T03:55:03.434Z,67
2018-05-04T04:00:02.881Z,100
2018-05-04T04:05:03.452Z,136
2018-05-04T04:10:03.056Z,260
2018-05-04T04:15:02.633Z,345
2018-05-04T04:20:03.107Z,439
2018-05-04T04:25:02.685Z,552
2018-05-04T04:30:03.533Z,671
2018-05-04T04:35:03.198Z,764
2018-05-04T04:40:02.840Z,868
2018-05-04T04:45:02.465Z,979
2018-05-04T04:50:03.187Z,1000
2018-05-04T04:55:02.979Z,1000
2018-05-04T05:00:02.536Z,1000
2018-05-04T05:05:03.208Z,1000
2018-05-04T05:10:02.836Z,1000
2018-05-04T05:15:03.394Z,1000
2018-05-04T05:20:02.983Z,1000
2018-05-04T05:25:02.597Z,1000
2018-05-04T05:30:03.158Z,1000
2018-05-04T05:35:02.809Z,2000
2018-05-04T05:40:03.389Z,2000
2018-05-04T05:45:02.964Z,2000
2018-05-04T05:50:02.594Z,2000
2018-05-04T05:55:03.150Z,2000
2018-05-04T06:00:03.093Z,2000
2018-05-04T06:05:02.672Z,2000
2018-05-04T06:10:03.392Z,2000
2018-05-04T06:15:02.975Z,2000
2018-05-04T06:20:02.792Z,2000
2018-05-04T06:25:03.450Z,2000
2018-05-04T06:30:03.279Z,2000
2018-05-04T06:35:03.117Z,2000
2018-05-04T06:40:02.801Z,2000
2018-05-04T06:45:03.432Z,2000
2018-05-04T06:50:03.027Z,3000
2018-05-04T06:55:02.624Z,3000
2018-05-04T07:00:03.238Z,3000
2018-05-04T07:05:02.768Z,3000
2018-05-04T07:10:03.586Z,3000
2018-05-04T07:15:03.210Z,3000
2018-05-04T07:20:03.022Z,3000
2018-05-04T07:25:02.656Z,3000
2018-05-04T07:30:03.381Z,4000
2018-05-04T07:35:02.861Z,4000
2018-05-04T07:40:02.483Z,4000
2018-05-04T07:45:03.046Z,4000
2018-05-04T07:50:02.640Z,25000
2018-05-04T07:55:03.147Z,37000
2018-05-04T08:00:02.772Z,38000
2018-05-04T08:05:02.533Z,40000
2018-05-04T08:10:03.147Z,41000
2018-05-04T08:15:02.677Z,43000
2018-05-04T08:20:03.318Z,43000
2018-05-04T08:25:03.157Z,45000
2018-05-04T08:30:02.767Z,46000
2018-05-04T08:35:02.558Z,46000
2018-05-04T08:40:03.407Z,49000
2018-05-04T08:45:03.001Z,50000
2018-05-04T08:50:02.662Z,51000
2018-05-04T08:55:03.254Z,51000
2018-05-04T09:00:02.822Z,52000
2018-05-04T09:05:02.447Z,52000
2018-05-04T09:10:03.016Z,53000
2018-05-04T09:15:02.630Z,53000
2018-05-04T09:20:03.249Z,53000
2018-05-04T09:25:02.859Z,53000
2018-05-04T09:30:03.361Z,53000
2018-05-04T09:35:02.914Z,53000
2018-05-04T09:40:02.536Z,51000
2018-05-04T09:45:03.154Z,53000
2018-05-04T09:50:02.904Z,53000
2018-05-04T09:55:02.484Z,53000
2018-05-04T10:00:02.993Z,53000
2018-05-04T10:05:02.591Z,52000
2018-05-04T10:10:03.205Z,53000
2018-05-04T10:15:02.800Z,51000
2018-05-04T10:20:03.383Z,52000
2018-05-04T10:25:02.910Z,53000
2018-05-04T10:30:03.590Z,53000
2018-05-04T10:35:03.253Z,52000
2018-05-04T10:40:02.993Z,52000
2018-05-04T10:45:02.619Z,53000
2018-05-04T10:50:02.452Z,52000
2018-05-04T10:55:03.057Z,33000
2018-05-04T11:00:02.618Z,51000
2018-05-04T11:05:03.262Z,52000
2018-05-04T11:10:02.942Z,52000
2018-05-04T11:15:02.577Z,52000
2018-05-04T11:20:03.134Z,52000
2018-05-04T11:25:02.717Z,52000
2018-05-04T11:30:03.286Z,51000
2018-05-04T11:35:02.853Z,51000
2018-05-04T11:40:02.481Z,51000
2018-05-04T11:45:02.977Z,51000
2018-05-04T11:50:02.586Z,50000
2018-05-04T11:55:03.030Z,44000
2018-05-04T12:00:02.556Z,49000
2018-05-04T12:05:03.153Z,49000
2018-05-04T12:10:02.741Z,49000
2018-05-04T12:15:03.260Z,48000
2018-05-04T12:20:02.768Z,47000
2018-05-04T12:25:03.290Z,47000
2018-05-04T12:30:02.943Z,45000
2018-05-04T12:35:03.462Z,45000
2018-05-04T12:40:03.067Z,45000
2018-05-04T12:45:02.654Z,43000
2018-05-04T12:50:03.220Z,43000
2018-05-04T12:55:02.750Z,40000
2018-05-04T13:00:03.252Z,41000
2018-05-04T13:05:02.761Z,40000
2018-05-04T13:10:03.479Z,40000
2018-05-04T13:15:02.998Z,38000
2018-05-04T13:20:02.646Z,38000
2018-05-04T13:25:03.175Z,37000
2018-05-04T13:30:02.727Z,36000
2018-05-04T13:35:03.449Z,35000
2018-05-04T13:40:03.066Z,34000
2018-05-04T13:45:02.640Z,33000
2018-05-04T13:50:03.153Z,33000
2018-05-04T13:55:02.701Z,32000
2018-05-04T14:00:03.213Z,32000
2018-05-04T14:05:02.876Z,33000
2018-05-04T14:10:02.503Z,32000
2018-05-04T14:15:03.041Z,32000
2018-05-04T14:20:02.672Z,31000
2018-05-04T14:25:03.463Z,30000
2018-05-04T14:30:03.014Z,30000
2018-05-04T14:35:02.938Z,28000
2018-05-04T14:40:03.150Z,29000
2018-05-04T14:45:03.143Z,28000
2018-05-04T14:50:02.846Z,27000
2018-05-04T14:55:03.397Z,26000
2018-05-04T15:00:02.896Z,26000
2018-05-04T15:05:03.440Z,25000
2018-05-04T15:10:02.971Z,24000
2018-05-04T15:15:02.469Z,24000
2018-05-04T15:20:03.068Z,23000
2018-05-04T15:25:02.775Z,22000
2018-05-04T15:30:03.070Z,22000
2018-05-04T15:35:02.865Z,21000
2018-05-04T15:40:02.732Z,21000
2018-05-04T15:45:03.493Z,20000
2018-05-04T15:50:03.012Z,20000
2018-05-04T15:55:02.857Z,19000
2018-05-04T16:00:02.893Z,19000
2018-05-04T16:05:03.087Z,18000
2018-05-04T16:10:02.757Z,18000
2018-05-04T16:15:03.268Z,17000
2018-05-04T16:20:02.838Z,17000
2018-05-04T16:25:03.437Z,16000
2018-05-04T16:30:02.996Z,16000
2018-05-04T16:35:02.666Z,15000
2018-05-04T16:40:03.303Z,15000
2018-05-04T16:45:03.136Z,14000
2018-05-04T16:50:03.046Z,13000
2018-05-04T16:55:02.717Z,13000
2018-05-04T17:00:03.321Z,12000
2018-05-04T17:05:02.832Z,11000
2018-05-04T17:10:03.388Z,11000
2018-05-04T17:15:02.901Z,11000
2018-05-04T17:20:02.541Z,10000
2018-05-04T17:25:03.137Z,10000
2018-05-04T17:30:02.695Z,9000
2018-05-04T17:35:03.258Z,8000
2018-05-04T17:40:02.835Z,8000
2018-05-04T17:45:03.420Z,7000
2018-05-04T17:50:02.949Z,6000
2018-05-04T17:55:02.690Z,6000
2018-05-04T18:00:02.582Z,5000
2018-05-04T18:05:03.216Z,4000
2018-05-04T18:10:02.876Z,4000
2018-05-04T18:15:03.391Z,3000
2018-05-04T18:20:03.074Z,1000
2018-05-04T18:25:02.811Z,1000
2018-05-04T18:30:03.377Z,1000
2018-05-04T18:35:02.957Z,885
2018-05-04T18:40:02.545Z,749
2018-05-04T18:45:03.381Z,645
2018-05-04T18:50:02.994Z,519
2018-05-04T18:55:02.538Z,405
2018-05-04T19:00:03.343Z,303
2018-05-04T19:05:03.152Z,174
2018-05-04T19:10:02.792Z,81
2018-05-04T19:15:03.412Z,64
2018-05-04T19:20:03.026Z,41
2018-05-04T19:25:02.626Z,27
2018-05-04T19:30:03.130Z,13
2018-05-04T19:35:02.767Z,6
2018-05-04T19:40:03.356Z,2
2018-05-04T19:45:02.923Z,1
2018-05-04T19:50:02.572Z,1
2018-05-04T19:55:03.158Z,0
2018-05-04T20:00:03.207Z,0
2018-05-04T20:05:02.838Z,0
2018-05-04T20:10:02.566Z,0
2018-05-04T20:15:03.249Z,0
2018-05-04T20:20:02.747Z,0
2018-05-04T20:25:03.288Z,0
2018-05-04T20:30:02.776Z,0
2018-05-04T20:35:03.314Z,0
2018-05-04T20:40:02.845Z,0
2018-05-04T20:45:03.438Z,0
2018-05-04T20:50:02.997Z,0
2018-05-04T20:55:02.634Z,0
2018-05-04T21:00:03.240Z,0
2018-05-04T21:05:02.909Z,0
2018-05-04T21:10:02.600Z,0
2018-05-04T21:15:03.227Z,0
2018-05-04T21:20:02.849Z,0
2018-05-04T21:25:02.481Z,0
2018-05-04T21:30:03.246Z,0
2018-05-04T21:35:02.813Z,0
2018-05-04T21:40:03.405Z,0
2018-05-04T21:45:02.926Z,0
2018-05-04T21:50:02.485Z,0
2018-05-04T21:55:03.036Z,0
2018-05-04T22:00:02.567Z,0
2018-05-04T22:05:03.116Z,0
2018-05-04T22:10:02.755Z,0
2018-05-04T22:15:03.285Z,0
2018-05-04T22:20:03.033Z,0
2018-05-04T22:25:02.622Z,0
2018-05-04T22:30:03.131Z,0
2018-05-04T22:35:02.706Z,0
2018-05-04T22:40:03.308Z,0
2018-05-04T22:45:02.868Z,0
2018-05-04T22:50:03.382Z,0
2018-05-04T22:55:02.982Z,0
2018-05-04T23:00:04.488Z,0
2018-05-04T23:05:03.021Z,0
2018-05-04T23:10:02.949Z,0
2018-05-04T23:15:02.480Z,0
2018-05-04T23:20:03.036Z,0
2018-05-04T23:25:02.576Z,0
2018-05-04T23:30:03.329Z,0
2018-05-04T23:35:02.886Z,0
2018-05-04T23:40:02.515Z,0
2018-05-04T23:45:03.172Z,0
2018-05-04T23:50:02.724Z,0
2018-05-04T23:55:03.277Z,0
